createdAt,value
2023-05-15T00:02:20.617Z,11.95
2023-05-15T00:04:51.852Z,12.03
2023-05-15T00:07:22.597Z,11.80
2023-05-15T00:09:53.311Z,11.88
2023-05-15T00:12:24.462Z,13.25
2023-05-15T00:14:55.012Z,12.65
2023-05-15T00:17:26.476Z,13.00
2023-05-15T00:19:58.550Z,13.28
2023-05-15T00:22:29.275Z,13.88
2023-05-15T00:24:59.790Z,13.78
2023-05-15T00:27:30.233Z,13.50
2023-05-15T00:30:00.756Z,14.90
2023-05-15T00:32:31.451Z,15.03
2023-05-15T00:35:01.994Z,14.53
2023-05-15T00:37:32.610Z,15.50
2023-05-15T00:40:03.470Z,13.98
2023-05-15T00:42:34.834Z,15.70
2023-05-15T00:45:08.644Z,15.48
2023-05-15T00:47:41.333Z,16.27
2023-05-15T00:50:12.702Z,16.17
2023-05-15T00:52:44.574Z,16.20
2023-05-15T00:55:15.188Z,15.40
2023-05-15T00:57:46.922Z,16.25
2023-05-15T01:00:19.002Z,15.70
2023-05-15T01:02:50.596Z,15.65
2023-05-15T01:05:21.454Z,14.30
2023-05-15T01:08:04.493Z,15.72
2023-05-15T01:10:36.163Z,14.75
2023-05-15T01:13:10.292Z,14.85
2023-05-15T01:15:41.704Z,16.10
2023-05-15T01:18:12.342Z,14.50
2023-05-15T01:20:57.987Z,15.00
2023-05-15T01:24:01.906Z,15.80
2023-05-15T01:27:01.238Z,15.40
2023-05-15T01:29:40.592Z,14.90
2023-05-15T01:32:19.137Z,14.53
2023-05-15T01:34:56.723Z,14.78
2023-05-15T01:37:29.811Z,15.48
2023-05-15T01:40:03.229Z,15.07
2023-05-15T01:42:36.374Z,15.50
2023-05-15T01:45:10.191Z,15.18
2023-05-15T01:47:45.976Z,15.50
2023-05-15T01:50:19.615Z,14.20
2023-05-15T01:52:57.842Z,14.20
2023-05-15T01:55:30.212Z,14.43
2023-05-15T01:58:03.651Z,15.77
2023-05-15T02:00:35.125Z,15.60
2023-05-15T02:03:07.692Z,16.30
2023-05-15T02:05:39.975Z,15.83
2023-05-15T02:08:11.937Z,15.32
2023-05-15T02:10:43.766Z,14.87
2023-05-15T02:13:15.453Z,15.50
2023-05-15T02:15:46.494Z,14.23
2023-05-15T02:18:17.436Z,14.80
2023-05-15T02:20:49.213Z,14.83
2023-05-15T02:23:21.334Z,15.17
2023-05-15T02:25:57.879Z,15.85
2023-05-15T02:28:49.675Z,15.60
2023-05-15T02:31:24.515Z,15.57
2023-05-15T02:34:01.199Z,15.48
2023-05-15T02:36:34.486Z,15.68
2023-05-15T02:39:05.483Z,15.10
2023-05-15T02:41:37.767Z,15.38
2023-05-15T02:44:09.364Z,15.55
2023-05-15T02:46:41.397Z,15.70
2023-05-15T02:49:13.058Z,14.83
2023-05-15T02:51:43.840Z,15.23
2023-05-15T02:54:15.263Z,15.38
2023-05-15T02:56:45.896Z,15.80
2023-05-15T02:59:18.026Z,15.63
2023-05-15T03:01:48.920Z,16.17
2023-05-15T03:04:19.548Z,16.27
2023-05-15T03:06:50.181Z,15.80
2023-05-15T03:09:20.995Z,15.40
2023-05-15T03:11:51.740Z,15.27
2023-05-15T03:14:22.268Z,15.98
2023-05-15T03:16:54.336Z,15.90
2023-05-15T03:19:25.111Z,15.07
2023-05-15T03:21:55.713Z,15.93
2023-05-15T03:24:26.429Z,15.43
2023-05-15T03:26:57.919Z,15.80
2023-05-15T03:29:28.539Z,14.83
2023-05-15T03:31:59.253Z,16.07
2023-05-15T03:34:29.780Z,16.37
2023-05-15T03:37:00.397Z,15.88
2023-05-15T03:39:31.125Z,16.83
2023-05-15T03:42:03.468Z,16.62
2023-05-15T03:44:33.971Z,17.15
2023-05-15T03:47:04.794Z,16.62
2023-05-15T03:49:36.844Z,16.10
2023-05-15T03:52:07.885Z,15.87
2023-05-15T03:54:38.734Z,16.30
2023-05-15T03:57:09.339Z,16.47
2023-05-15T03:59:40.028Z,15.57
2023-05-15T04:02:11.111Z,17.00
2023-05-15T04:04:47.749Z,16.57
2023-05-15T04:07:18.637Z,15.57
2023-05-15T04:09:49.166Z,16.83
2023-05-15T04:12:19.748Z,17.13
2023-05-15T04:14:52.161Z,16.93
2023-05-15T04:17:23.011Z,15.63
2023-05-15T04:19:56.291Z,15.85
2023-05-15T04:22:29.777Z,16.30
2023-05-15T04:25:00.444Z,14.63
2023-05-15T04:27:31.096Z,14.73
2023-05-15T04:30:02.030Z,15.05
2023-05-15T04:32:36.139Z,15.43
2023-05-15T04:35:12.814Z,15.35
2023-05-15T04:37:48.227Z,16.00
2023-05-15T04:40:19.061Z,14.00
2023-05-15T04:42:49.496Z,14.30
2023-05-15T04:45:20.056Z,14.28
2023-05-15T04:47:50.640Z,14.58
2023-05-15T04:50:21.354Z,14.80
2023-05-15T04:52:51.920Z,13.50
2023-05-15T04:55:22.491Z,13.05
2023-05-15T04:57:53.128Z,13.80
2023-05-15T05:00:24.077Z,13.45
2023-05-15T05:02:54.862Z,13.78
2023-05-15T05:05:26.196Z,12.93
2023-05-15T05:07:56.991Z,12.85
2023-05-15T05:10:27.380Z,14.15
2023-05-15T05:12:57.882Z,13.00
2023-05-15T05:15:28.516Z,13.08
2023-05-15T05:18:00.957Z,13.78
2023-05-15T05:20:31.577Z,11.83
2023-05-15T05:23:02.302Z,10.45
2023-05-15T05:25:34.400Z,9.75
2023-05-15T05:28:05.046Z,10.90
2023-05-15T05:30:35.664Z,10.32
2023-05-15T05:33:07.084Z,11.60
2023-05-15T05:35:37.770Z,9.90
2023-05-15T05:38:08.565Z,10.93
2023-05-15T05:40:39.376Z,12.33
2023-05-15T05:43:09.965Z,10.72
2023-05-15T05:45:41.059Z,9.63
2023-05-15T05:48:11.736Z,9.48
2023-05-15T05:50:43.601Z,9.00
2023-05-15T05:53:16.289Z,9.55
2023-05-15T05:55:47.790Z,8.43
2023-05-15T06:00:51.010Z,10.13
2023-05-15T06:03:22.284Z,9.60
2023-05-15T06:05:54.191Z,9.15
2023-05-15T06:08:29.636Z,9.75
2023-05-15T06:11:00.552Z,11.38
2023-05-15T06:13:31.082Z,9.55
2023-05-15T06:16:03.812Z,11.35
2023-05-15T06:18:34.513Z,11.18
2023-05-15T06:21:05.099Z,11.15
2023-05-15T06:23:40.636Z,10.65
2023-05-15T06:26:13.807Z,10.23
2023-05-15T06:28:46.923Z,10.95
2023-05-15T06:31:21.430Z,10.03
2023-05-15T06:33:55.455Z,10.85
2023-05-15T06:36:29.302Z,9.75
2023-05-15T06:38:59.965Z,9.83
2023-05-15T06:41:30.798Z,10.08
2023-05-15T06:44:02.395Z,11.35
2023-05-15T06:46:33.230Z,10.43
2023-05-15T06:49:04.183Z,10.35
2023-05-15T06:51:35.165Z,10.43
2023-05-15T06:54:06.906Z,10.35
2023-05-15T06:56:37.427Z,11.35
2023-05-15T06:59:08.202Z,10.68
2023-05-15T07:01:41.722Z,11.45
2023-05-15T07:04:15.220Z,11.65
2023-05-15T07:06:46.018Z,11.12
2023-05-15T07:09:18.522Z,10.93
2023-05-15T07:11:49.734Z,10.80
2023-05-15T07:14:20.650Z,11.80
2023-05-15T07:16:52.716Z,10.40
2023-05-15T07:19:24.677Z,10.43
2023-05-15T07:21:55.357Z,10.98
2023-05-15T07:24:26.189Z,10.05
2023-05-15T07:26:59.013Z,9.60
2023-05-15T07:29:30.001Z,9.68
2023-05-15T07:32:00.563Z,9.10
2023-05-15T07:34:31.658Z,8.58
2023-05-15T07:37:02.670Z,8.60
2023-05-15T07:39:33.610Z,8.73
2023-05-15T07:42:04.418Z,8.95
2023-05-15T07:44:35.432Z,8.78
2023-05-15T07:47:06.265Z,9.10
2023-05-15T07:49:36.796Z,7.97
2023-05-15T07:52:09.261Z,9.35
2023-05-15T07:54:41.914Z,8.45
2023-05-15T07:57:13.110Z,8.00
2023-05-15T07:59:46.733Z,8.10
2023-05-15T08:02:17.863Z,8.68
2023-05-15T08:04:48.446Z,7.60
2023-05-15T08:07:29.038Z,9.08
2023-05-15T08:10:00.232Z,8.25
2023-05-15T08:12:30.807Z,7.80
2023-05-15T08:15:01.540Z,7.70
2023-05-15T08:17:32.145Z,8.08
2023-05-15T08:20:04.795Z,8.55
2023-05-15T08:22:35.406Z,8.68
2023-05-15T08:25:07.124Z,8.38
2023-05-15T08:27:37.741Z,8.28
2023-05-15T08:30:12.568Z,7.30
2023-05-15T08:32:48.927Z,8.13
2023-05-15T08:35:20.672Z,7.75
2023-05-15T08:37:51.183Z,8.15
2023-05-15T08:40:34.435Z,7.80
2023-05-15T08:42:57.446Z,7.80
2023-05-15T08:45:29.020Z,7.83
2023-05-15T08:48:02.795Z,8.50
2023-05-15T08:50:33.655Z,8.88
2023-05-15T08:53:04.298Z,9.05
2023-05-15T08:55:35.753Z,7.37
2023-05-15T08:58:08.652Z,9.43
2023-05-15T09:00:41.537Z,7.75
2023-05-15T09:03:18.299Z,9.10
2023-05-15T09:05:52.158Z,7.83
2023-05-15T09:08:25.777Z,8.53
2023-05-15T09:10:59.632Z,8.00
2023-05-15T09:13:31.545Z,8.48
2023-05-15T09:16:06.268Z,8.18
2023-05-15T09:18:39.709Z,8.18
2023-05-15T09:21:27.853Z,7.70
2023-05-15T09:24:19.026Z,7.90
2023-05-15T09:27:04.637Z,8.18
2023-05-15T09:29:38.728Z,7.90
2023-05-15T09:32:11.596Z,7.95
2023-05-15T09:34:44.854Z,8.55
2023-05-15T09:37:34.907Z,7.30
2023-05-15T09:40:12.265Z,8.48
2023-05-15T09:42:42.791Z,8.93
2023-05-15T09:45:17.498Z,8.03
2023-05-15T09:47:48.419Z,7.30
2023-05-15T09:50:23.918Z,7.62
2023-05-15T09:52:57.629Z,7.70
2023-05-15T09:55:28.539Z,7.80
2023-05-15T09:58:08.356Z,8.20
2023-05-15T10:00:48.658Z,7.75
2023-05-15T10:03:13.132Z,8.08
2023-05-15T10:05:44.472Z,7.95
2023-05-15T10:08:15.856Z,8.55
2023-05-15T10:10:46.891Z,7.85
2023-05-15T10:13:18.136Z,8.45
2023-05-15T10:15:49.707Z,7.97
2023-05-15T10:18:24.991Z,7.25
2023-05-15T10:20:57.626Z,6.30
2023-05-15T10:23:30.285Z,7.33
2023-05-15T10:26:03.797Z,7.40
2023-05-15T10:28:36.229Z,7.37
2023-05-15T10:31:08.044Z,7.72
2023-05-15T10:33:39.768Z,7.60
2023-05-15T10:36:11.079Z,6.42
2023-05-15T10:38:42.856Z,7.10
2023-05-15T10:41:17.326Z,6.67
2023-05-15T10:43:47.619Z,7.12
2023-05-15T10:46:18.478Z,6.75
2023-05-15T10:48:49.193Z,6.95
2023-05-15T10:51:21.771Z,6.50
2023-05-15T10:53:53.488Z,8.00
2023-05-15T10:56:35.076Z,6.83
2023-05-15T10:59:08.564Z,5.78
2023-05-15T11:01:41.632Z,6.37
2023-05-15T11:04:20.018Z,7.37
2023-05-15T11:06:58.498Z,7.97
2023-05-15T11:09:37.752Z,6.10
2023-05-15T11:12:11.803Z,6.97
2023-05-15T11:14:45.925Z,7.05
2023-05-15T11:17:17.615Z,6.30
2023-05-15T11:19:54.696Z,5.67
2023-05-15T11:22:40.122Z,5.92
2023-05-15T11:25:16.894Z,6.08
2023-05-15T11:27:50.358Z,5.58
2023-05-15T11:30:22.732Z,6.28
2023-05-15T11:32:59.347Z,6.78
2023-05-15T11:35:32.638Z,6.58
2023-05-15T11:38:14.998Z,5.35
2023-05-15T11:40:49.115Z,5.78
2023-05-15T11:43:27.556Z,5.20
2023-05-15T11:45:59.904Z,6.00
2023-05-15T11:48:35.996Z,5.75
2023-05-15T11:51:08.436Z,5.10
2023-05-15T11:53:40.922Z,5.03
2023-05-15T11:56:21.244Z,5.72
2023-05-15T11:58:54.167Z,6.67
2023-05-15T12:01:25.034Z,6.58
2023-05-15T12:03:55.938Z,5.50
2023-05-15T12:06:27.837Z,5.92
2023-05-15T12:08:58.398Z,7.35
2023-05-15T12:11:28.890Z,6.47
2023-05-15T12:14:00.068Z,5.90
2023-05-15T12:16:30.825Z,5.78
2023-05-15T12:19:01.702Z,5.53
2023-05-15T12:21:32.453Z,5.55
2023-05-15T12:24:08.073Z,5.35
2023-05-15T12:26:36.759Z,5.20
2023-05-15T12:29:07.843Z,5.53
2023-05-15T12:31:39.838Z,4.12
2023-05-15T12:34:11.381Z,4.30
2023-05-15T12:36:43.043Z,4.53
2023-05-15T12:39:14.687Z,4.50
2023-05-15T12:41:47.704Z,6.05
2023-05-15T12:44:21.664Z,5.25
2023-05-15T12:46:55.539Z,5.03
2023-05-15T12:49:26.163Z,4.50
2023-05-15T12:51:56.788Z,4.87
2023-05-15T12:54:27.256Z,4.97
2023-05-15T12:56:58.061Z,5.08
2023-05-15T12:59:29.656Z,4.62
2023-05-15T13:02:00.562Z,4.20
2023-05-15T13:04:37.480Z,4.70
2023-05-15T13:07:08.575Z,4.40
2023-05-15T13:09:41.079Z,4.35
2023-05-15T13:12:13.256Z,4.95
2023-05-15T13:14:43.711Z,4.55
2023-05-15T13:17:15.582Z,4.65
2023-05-15T13:19:46.215Z,5.17
2023-05-15T13:22:16.772Z,5.03
2023-05-15T13:24:47.744Z,4.42
2023-05-15T13:27:18.263Z,4.78
2023-05-15T13:29:48.852Z,5.05
2023-05-15T13:32:19.324Z,4.67
2023-05-15T13:34:50.539Z,4.42
2023-05-15T13:37:21.002Z,4.28
2023-05-15T13:39:51.458Z,4.45
2023-05-15T13:42:21.958Z,4.20
2023-05-15T13:44:52.416Z,3.65
2023-05-15T13:47:22.965Z,4.12
2023-05-15T13:49:54.017Z,4.70
2023-05-15T13:52:24.772Z,3.83
2023-05-15T13:54:55.970Z,2.75
2023-05-15T13:57:27.237Z,4.28
2023-05-15T13:59:57.788Z,3.98
2023-05-15T14:02:28.768Z,3.98
2023-05-15T14:04:59.470Z,3.95
2023-05-15T14:07:29.981Z,3.87
2023-05-15T14:10:00.622Z,4.00
2023-05-15T14:12:32.242Z,3.90
2023-05-15T14:15:02.807Z,4.08
2023-05-15T14:17:33.319Z,4.08
2023-05-15T14:20:05.450Z,4.00
2023-05-15T14:22:36.138Z,4.60
2023-05-15T14:25:08.308Z,4.47
2023-05-15T14:27:38.871Z,6.65
2023-05-15T14:30:10.453Z,5.22
2023-05-15T14:32:41.517Z,4.33
2023-05-15T14:35:12.140Z,4.17
2023-05-15T14:37:45.274Z,4.97
2023-05-15T14:40:15.921Z,4.47
2023-05-15T14:42:46.568Z,4.90
2023-05-15T14:45:18.109Z,4.65
2023-05-15T14:47:48.644Z,4.58
2023-05-15T14:50:19.239Z,4.15
2023-05-15T14:52:49.663Z,4.05
2023-05-15T14:55:24.043Z,3.92
2023-05-15T14:57:54.577Z,4.00
2023-05-15T15:00:25.372Z,3.98
2023-05-15T15:02:57.833Z,3.90
2023-05-15T15:05:28.637Z,3.85
2023-05-15T15:08:07.726Z,3.98
2023-05-15T15:10:39.938Z,3.80
2023-05-15T15:13:13.672Z,3.60
2023-05-15T15:15:44.464Z,3.33
2023-05-15T15:18:15.109Z,3.72
2023-05-15T15:20:45.717Z,3.90
2023-05-15T15:23:16.399Z,3.58
2023-05-15T15:25:47.008Z,4.00
2023-05-15T15:28:17.505Z,3.80
2023-05-15T15:30:47.990Z,3.67
2023-05-15T15:33:18.513Z,4.10
2023-05-15T15:35:50.933Z,4.60
2023-05-15T15:38:21.435Z,4.17
2023-05-15T15:40:52.241Z,3.90
2023-05-15T15:43:32.297Z,4.58
2023-05-15T15:46:03.908Z,4.08
2023-05-15T15:48:34.530Z,3.80
2023-05-15T15:51:05.972Z,4.75
2023-05-15T15:53:37.692Z,3.80
2023-05-15T15:56:08.781Z,4.08
2023-05-15T15:58:39.321Z,3.98
2023-05-15T16:01:09.947Z,3.70
2023-05-15T16:03:40.466Z,3.80
2023-05-15T16:06:11.162Z,3.92
2023-05-15T16:08:41.681Z,3.47
2023-05-15T16:11:12.217Z,3.87
2023-05-15T16:13:42.779Z,4.05
2023-05-15T16:16:13.414Z,4.37
2023-05-15T16:18:44.645Z,3.95
2023-05-15T16:21:15.381Z,4.05
2023-05-15T16:23:45.807Z,4.70
2023-05-15T16:26:16.272Z,4.42
2023-05-15T16:28:55.229Z,4.62
2023-05-15T16:31:28.130Z,4.58
2023-05-15T16:34:03.780Z,4.70
2023-05-15T16:36:34.447Z,4.15
2023-05-15T16:39:05.163Z,4.40
2023-05-15T16:41:35.851Z,3.72
2023-05-15T16:44:08.018Z,4.78
2023-05-15T16:46:39.386Z,3.98
2023-05-15T16:49:09.786Z,4.20
2023-05-15T16:51:40.276Z,3.67
2023-05-15T16:54:10.733Z,4.05
2023-05-15T16:56:41.247Z,3.92
2023-05-15T16:59:13.634Z,3.65
2023-05-15T17:01:44.084Z,3.98
2023-05-15T17:04:14.630Z,3.90
2023-05-15T17:06:45.100Z,4.28
2023-05-15T17:09:16.064Z,3.98
2023-05-15T17:11:47.872Z,4.08
2023-05-15T17:14:20.165Z,4.12
2023-05-15T17:16:53.592Z,3.58
2023-05-15T17:19:25.783Z,3.98
2023-05-15T17:21:56.893Z,4.47
2023-05-15T17:24:35.564Z,4.03
2023-05-15T17:26:59.719Z,4.25
2023-05-15T17:29:30.196Z,4.53
2023-05-15T17:32:00.633Z,4.40
2023-05-15T17:34:31.330Z,4.80
2023-05-15T17:37:01.877Z,4.70
2023-05-15T17:39:32.621Z,4.17
2023-05-15T17:42:03.243Z,4.50
2023-05-15T17:44:35.417Z,4.50
2023-05-15T17:47:07.264Z,4.45
2023-05-15T17:49:39.526Z,4.50
2023-05-15T17:52:10.219Z,4.83
2023-05-15T17:54:41.132Z,4.90
2023-05-15T17:57:13.821Z,5.08
2023-05-15T17:59:44.529Z,4.80
2023-05-15T18:02:15.045Z,4.92
2023-05-15T18:04:45.877Z,4.70
2023-05-15T18:07:22.512Z,5.37
2023-05-15T18:09:49.904Z,4.67
2023-05-15T18:12:22.448Z,5.10
2023-05-15T18:14:53.031Z,5.30
2023-05-15T18:17:23.578Z,5.78
2023-05-15T18:19:54.059Z,4.95
2023-05-15T18:22:24.706Z,4.65
2023-05-15T18:24:58.178Z,4.42
2023-05-15T18:27:30.363Z,5.65
2023-05-15T18:30:06.016Z,5.58
2023-05-15T18:32:37.058Z,4.78
2023-05-15T18:35:08.823Z,5.30
2023-05-15T18:37:40.638Z,5.42
2023-05-15T18:40:11.914Z,4.65
2023-05-15T18:42:45.499Z,5.33
2023-05-15T18:45:16.379Z,5.25
2023-05-15T18:47:53.023Z,5.78
2023-05-15T18:50:28.202Z,5.35
2023-05-15T18:53:00.213Z,5.37
2023-05-15T18:55:33.832Z,4.85
2023-05-15T18:58:04.493Z,5.53
2023-05-15T19:00:38.700Z,6.25
2023-05-15T19:03:09.058Z,5.67
2023-05-15T19:05:43.198Z,5.65
2023-05-15T19:08:14.848Z,5.42
2023-05-15T19:10:51.071Z,5.05
2023-05-15T19:13:23.296Z,5.55
2023-05-15T19:15:54.347Z,6.53
2023-05-15T19:18:26.809Z,6.25
2023-05-15T19:20:58.975Z,7.28
2023-05-15T19:23:29.774Z,6.72
2023-05-15T19:26:03.075Z,6.53
2023-05-15T19:28:33.807Z,6.00
2023-05-15T19:31:14.077Z,6.62
2023-05-15T19:33:39.530Z,7.00
2023-05-15T19:36:13.715Z,7.00
2023-05-15T19:38:45.676Z,6.45
2023-05-15T19:41:17.694Z,6.83
2023-05-15T19:43:50.917Z,6.60
2023-05-15T19:46:25.728Z,6.58
2023-05-15T19:48:56.309Z,6.85
2023-05-15T19:51:26.918Z,6.65
2023-05-15T19:53:59.297Z,5.78
2023-05-15T19:56:30.866Z,6.00
2023-05-15T19:59:02.774Z,6.83
2023-05-15T20:01:33.377Z,6.22
2023-05-15T20:04:06.923Z,6.15
2023-05-15T20:06:38.836Z,6.40
2023-05-15T20:09:09.824Z,6.97
2023-05-15T20:11:42.165Z,5.75
2023-05-15T20:14:14.636Z,6.60
2023-05-15T20:16:45.565Z,6.40
2023-05-15T20:19:17.988Z,5.90
2023-05-15T20:21:52.749Z,6.20
2023-05-15T20:24:24.946Z,6.00
2023-05-15T20:26:57.484Z,6.15
2023-05-15T20:29:29.736Z,6.25
2023-05-15T20:32:00.585Z,6.33
2023-05-15T20:34:32.928Z,6.03
2023-05-15T20:37:05.637Z,6.12
2023-05-15T20:39:36.578Z,6.70
2023-05-15T20:42:08.392Z,7.65
2023-05-15T20:44:39.604Z,6.50
2023-05-15T20:47:10.259Z,6.20
2023-05-15T20:49:42.324Z,6.25
2023-05-15T20:52:16.380Z,6.45
2023-05-15T20:54:47.156Z,6.10
2023-05-15T20:57:17.632Z,6.58
2023-05-15T20:59:48.082Z,6.55
2023-05-15T21:02:18.653Z,7.10
2023-05-15T21:04:48.997Z,6.42
2023-05-15T21:07:20.144Z,6.55
2023-05-15T21:09:50.708Z,6.87
2023-05-15T21:12:22.469Z,7.03
2023-05-15T21:14:52.856Z,6.10
2023-05-15T21:17:23.409Z,7.23
2023-05-15T21:19:54.490Z,6.95
2023-05-15T21:22:25.280Z,6.83
2023-05-15T21:24:55.977Z,6.37
2023-05-15T21:27:26.595Z,6.33
2023-05-15T21:29:57.180Z,7.30
2023-05-15T21:32:27.840Z,6.97
2023-05-15T21:34:58.755Z,8.30
2023-05-15T21:37:29.476Z,7.55
2023-05-15T21:39:59.879Z,7.00
2023-05-15T21:42:32.248Z,7.47
2023-05-15T21:45:04.847Z,7.17
2023-05-15T21:47:34.834Z,7.03
2023-05-15T21:50:09.217Z,7.30
2023-05-15T21:52:39.802Z,7.22
2023-05-15T21:55:11.944Z,7.72
2023-05-15T21:57:42.434Z,7.90
2023-05-15T22:00:14.064Z,7.97
2023-05-15T22:02:44.868Z,8.00
2023-05-15T22:05:17.245Z,7.87
2023-05-15T22:07:47.702Z,8.10
2023-05-15T22:10:18.633Z,10.60
2023-05-15T22:12:49.530Z,8.00
2023-05-15T22:15:20.131Z,7.80
2023-05-15T22:17:50.636Z,8.03
2023-05-15T22:20:23.612Z,7.80
2023-05-15T22:22:54.404Z,8.78
2023-05-15T22:25:25.064Z,8.08
2023-05-15T22:27:55.684Z,7.83
2023-05-15T22:30:26.290Z,8.03
2023-05-15T22:32:57.138Z,9.00
2023-05-15T22:35:28.267Z,9.18
2023-05-15T22:37:59.220Z,9.90
2023-05-15T22:40:29.689Z,9.73
2023-05-15T22:43:00.226Z,9.88
2023-05-15T22:45:31.170Z,9.83
2023-05-15T22:48:01.848Z,9.40
2023-05-15T22:50:32.287Z,9.48
2023-05-15T22:53:02.853Z,8.80
2023-05-15T22:55:33.601Z,9.20
2023-05-15T22:58:04.192Z,9.23
2023-05-15T23:00:35.229Z,9.70
2023-05-15T23:03:06.128Z,10.32
2023-05-15T23:05:36.926Z,10.13
2023-05-15T23:08:07.760Z,10.72
2023-05-15T23:10:39.584Z,10.58
2023-05-15T23:13:10.279Z,10.38
2023-05-15T23:15:41.255Z,10.08
2023-05-15T23:18:11.726Z,11.48
2023-05-15T23:20:42.829Z,10.65
2023-05-15T23:23:13.561Z,11.93
2023-05-15T23:25:44.195Z,11.65
2023-05-15T23:28:14.836Z,11.57
2023-05-15T23:30:45.457Z,11.37
2023-05-15T23:33:17.617Z,11.27
2023-05-15T23:35:48.153Z,12.07
2023-05-15T23:38:18.685Z,11.43
2023-05-15T23:40:49.381Z,11.85
2023-05-15T23:43:19.902Z,12.00
2023-05-15T23:45:50.756Z,11.43
2023-05-15T23:48:21.233Z,11.83
2023-05-15T23:50:52.462Z,12.07
2023-05-15T23:53:23.251Z,11.38
2023-05-15T23:55:53.790Z,11.97
2023-05-15T23:58:24.286Z,11.10
